createdAt,value
2022-09-23T00:00:25.330Z,99588.47
2022-09-23T00:01:27.636Z,99589.22
2022-09-23T00:02:29.821Z,99588.38
2022-09-23T00:03:32.894Z,99586.59
2022-09-23T00:04:35.084Z,99587.59
2022-09-23T00:05:37.983Z,99592.09
2022-09-23T00:06:40.842Z,99592.06
2022-09-23T00:07:43.076Z,99585.75
2022-09-23T00:08:45.799Z,99589.53
2022-09-23T00:09:48.046Z,99585.91
2022-09-23T00:10:50.698Z,99583.22
2022-09-23T00:11:53.398Z,99592.97
2022-09-23T00:12:55.900Z,99588.63
2022-09-23T00:13:59.744Z,99581.75
2022-09-23T00:15:02.593Z,99583.50
2022-09-23T00:16:11.181Z,99577.72
2022-09-23T00:17:13.918Z,99581.22
2022-09-23T00:18:17.871Z,99585.97
2022-09-23T00:19:20.127Z,99575.50
2022-09-23T00:20:22.687Z,99573.41
2022-09-23T00:21:25.187Z,99566.44
2022-09-23T00:22:27.363Z,99584.09
2022-09-23T00:23:29.569Z,99587.69
2022-09-23T00:24:32.464Z,99576.88
2022-09-23T00:25:34.754Z,99582.78
2022-09-23T00:26:36.926Z,99583.75
2022-09-23T00:27:39.859Z,99581.03
2022-09-23T00:28:42.939Z,99580.38
2022-09-23T00:29:45.310Z,99570.28
2022-09-23T00:30:47.575Z,99584.78
2022-09-23T00:31:49.850Z,99579.50
2022-09-23T00:32:52.994Z,99583.03
2022-09-23T00:33:56.604Z,99578.59
2022-09-23T00:34:58.965Z,99580.31
2022-09-23T00:36:02.682Z,99573.72
2022-09-23T00:37:05.275Z,99580.66
2022-09-23T00:38:07.564Z,99578.13
2022-09-23T00:39:09.735Z,99581.78
2022-09-23T00:40:13.055Z,99580.00
2022-09-23T00:41:16.035Z,99578.25
2022-09-23T00:42:20.993Z,99579.03
2022-09-23T00:43:39.195Z,99573.00
2022-09-23T00:44:55.839Z,99575.69
2022-09-23T00:45:58.196Z,99557.56
2022-09-23T00:47:00.416Z,99573.09
2022-09-23T00:48:04.991Z,99567.78
2022-09-23T00:49:13.851Z,99568.69
2022-09-23T00:50:30.042Z,99568.56
2022-09-23T00:51:37.059Z,99568.56
2022-09-23T00:52:39.918Z,99569.34
2022-09-23T00:53:42.483Z,99565.84
2022-09-23T00:54:47.058Z,99561.44
2022-09-23T00:55:54.494Z,99570.06
2022-09-23T00:56:58.966Z,99569.28
2022-09-23T00:58:04.327Z,99564.94
2022-09-23T00:59:09.638Z,99567.56
2022-09-23T01:00:12.789Z,99561.38
2022-09-23T01:01:15.188Z,99570.06
2022-09-23T01:02:21.105Z,99561.28
2022-09-23T01:03:23.348Z,99570.06
2022-09-23T01:04:27.921Z,99565.94
2022-09-23T01:05:30.115Z,99559.09
2022-09-23T01:06:32.872Z,99561.91
2022-09-23T01:07:35.386Z,99569.72
2022-09-23T01:08:37.728Z,99557.34
2022-09-23T01:09:40.229Z,99564.31
2022-09-23T01:10:50.068Z,99565.00
2022-09-23T01:12:23.511Z,99563.22
2022-09-23T01:13:40.629Z,99559.63
2022-09-23T01:14:57.518Z,99551.00
2022-09-23T01:16:02.366Z,99558.03
2022-09-23T01:17:13.750Z,99559.75
2022-09-23T01:18:24.822Z,99557.28
2022-09-23T01:19:35.814Z,99554.81
2022-09-23T01:20:55.991Z,99553.06
2022-09-23T01:22:09.655Z,99551.41
2022-09-23T01:23:30.312Z,99558.25
2022-09-23T01:24:51.909Z,99547.78
2022-09-23T01:26:21.724Z,99553.06
2022-09-23T01:27:39.859Z,99547.72
2022-09-23T01:29:06.745Z,99546.09
2022-09-23T01:30:33.522Z,99547.91
2022-09-23T01:31:40.040Z,99560.16
2022-09-23T01:33:10.742Z,99550.63
2022-09-23T01:34:30.292Z,99552.41
2022-09-23T01:35:42.988Z,99545.09
2022-09-23T01:37:11.568Z,99546.72
2022-09-23T01:38:51.222Z,99537.78
2022-09-23T01:40:04.642Z,99535.25
2022-09-23T01:41:16.538Z,99540.00
2022-09-23T01:42:36.201Z,99526.72
2022-09-23T01:43:58.268Z,99539.03
2022-09-23T01:45:05.807Z,99544.50
2022-09-23T01:46:31.578Z,99533.16
2022-09-23T01:47:40.686Z,99530.63
2022-09-23T01:48:59.817Z,99538.78
2022-09-23T01:50:34.700Z,99539.75
2022-09-23T01:51:41.544Z,99534.69
2022-09-23T01:52:47.215Z,99529.28
2022-09-23T01:53:53.340Z,99531.09
2022-09-23T01:55:08.552Z,99536.47
2022-09-23T01:56:17.304Z,99528.84
2022-09-23T01:57:27.598Z,99529.72
2022-09-23T01:58:42.477Z,99531.44
2022-09-23T01:59:56.690Z,99528.81
2022-09-23T02:01:06.145Z,99529.56
2022-09-23T02:02:26.489Z,99531.22
2022-09-23T02:03:39.967Z,99523.78
2022-09-23T02:04:51.359Z,99521.88
2022-09-23T02:06:01.819Z,99522.72
2022-09-23T02:07:14.957Z,99529.16
2022-09-23T02:08:26.006Z,99524.53
2022-09-23T02:09:35.058Z,99528.56
2022-09-23T02:10:45.934Z,99534.22
2022-09-23T02:11:49.558Z,99531.53
2022-09-23T02:12:57.552Z,99530.88
2022-09-23T02:14:02.076Z,99532.75
2022-09-23T02:15:09.049Z,99534.97
2022-09-23T02:16:33.790Z,99537.00
2022-09-23T02:17:54.826Z,99531.38
2022-09-23T02:19:15.331Z,99537.63
2022-09-23T02:20:24.095Z,99535.84
2022-09-23T02:21:34.021Z,99539.16
2022-09-23T02:22:48.011Z,99535.72
2022-09-23T02:23:54.719Z,99530.22
2022-09-23T02:24:57.565Z,99530.59
2022-09-23T02:26:12.343Z,99535.44
2022-09-23T02:27:32.807Z,99532.44
2022-09-23T02:28:49.509Z,99534.06
2022-09-23T02:30:00.542Z,99531.34
2022-09-23T02:31:21.497Z,99530.13
2022-09-23T02:32:32.217Z,99531.31
2022-09-23T02:34:04.753Z,99534.22
2022-09-23T02:35:29.128Z,99529.88
2022-09-23T02:36:39.792Z,99533.25
2022-09-23T02:37:48.851Z,99535.03
2022-09-23T02:39:00.132Z,99534.88
2022-09-23T02:40:12.794Z,99529.03
2022-09-23T02:41:27.209Z,99532.75
2022-09-23T02:42:57.077Z,99535.53
2022-09-23T02:44:09.913Z,99532.13
2022-09-23T02:45:12.218Z,99532.81
2022-09-23T02:46:15.532Z,99540.53
2022-09-23T02:47:24.067Z,99536.88
2022-09-23T02:48:37.471Z,99529.91
2022-09-23T02:49:40.605Z,99535.34
2022-09-23T02:50:42.860Z,99519.63
2022-09-23T02:51:45.438Z,99517.63
2022-09-23T02:52:48.216Z,99522.63
2022-09-23T02:53:50.448Z,99518.22
2022-09-23T02:54:53.112Z,99521.63
2022-09-23T02:55:55.295Z,99507.03
2022-09-23T02:57:04.303Z,99518.34
2022-09-23T02:58:06.589Z,99512.06
2022-09-23T02:59:09.967Z,99516.53
2022-09-23T03:00:12.999Z,99513.66
2022-09-23T03:01:37.289Z,99511.91
2022-09-23T03:02:58.755Z,99513.25
2022-09-23T03:04:31.464Z,99512.63
2022-09-23T03:05:40.150Z,99515.38
2022-09-23T03:06:42.268Z,99512.19
2022-09-23T03:07:53.090Z,99512.91
2022-09-23T03:09:04.835Z,99511.22
2022-09-23T03:10:21.223Z,99514.50
2022-09-23T03:11:24.616Z,99510.94
2022-09-23T03:12:38.846Z,99512.81
2022-09-23T03:14:06.910Z,99502.34
2022-09-23T03:15:25.298Z,99508.22
2022-09-23T03:16:47.637Z,99504.19
2022-09-23T03:18:08.190Z,99511.44
2022-09-23T03:19:32.848Z,99508.97
2022-09-23T03:20:59.022Z,99504.63
2022-09-23T03:22:12.335Z,99509.09
2022-09-23T03:23:17.603Z,99505.81
2022-09-23T03:24:21.821Z,99510.16
2022-09-23T03:25:25.906Z,99503.31
2022-09-23T03:26:33.017Z,99505.84
2022-09-23T03:27:37.710Z,99503.09
2022-09-23T03:28:43.594Z,99500.31
2022-09-23T03:29:48.885Z,99504.22
2022-09-23T03:30:54.394Z,99498.97
2022-09-23T03:31:57.797Z,99499.97
2022-09-23T03:33:01.011Z,99499.22
2022-09-23T03:34:08.462Z,99502.78
2022-09-23T03:35:12.769Z,99503.56
2022-09-23T03:36:36.393Z,99500.66
2022-09-23T03:37:44.688Z,99489.94
2022-09-23T03:38:50.977Z,99490.59
2022-09-23T03:40:01.670Z,99491.22
2022-09-23T03:41:04.219Z,99492.03
2022-09-23T03:42:16.972Z,99489.56
2022-09-23T03:43:19.686Z,99496.59
2022-09-23T03:44:21.991Z,99494.81
2022-09-23T03:45:29.711Z,99495.63
2022-09-23T03:46:35.235Z,99484.47
2022-09-23T03:47:39.508Z,99487.03
2022-09-23T03:48:41.715Z,99493.94
2022-09-23T03:49:48.692Z,99484.34
2022-09-23T03:50:51.165Z,99487.53
2022-09-23T03:51:54.387Z,99485.16
2022-09-23T03:52:56.619Z,99486.97
2022-09-23T03:53:58.895Z,99483.28
2022-09-23T03:55:01.373Z,99483.13
2022-09-23T03:56:03.645Z,99486.44
2022-09-23T03:57:06.119Z,99483.03
2022-09-23T03:58:08.312Z,99484.75
2022-09-23T03:59:10.486Z,99480.19
2022-09-23T04:00:14.409Z,99481.09
2022-09-23T04:01:16.801Z,99481.13
2022-09-23T04:02:20.299Z,99482.34
2022-09-23T04:03:22.694Z,99482.44
2022-09-23T04:04:26.927Z,99478.31
2022-09-23T04:05:29.116Z,99479.22
2022-09-23T04:06:31.301Z,99487.84
2022-09-23T04:07:33.837Z,99479.81
2022-09-23T04:08:36.041Z,99482.19
2022-09-23T04:09:38.486Z,99490.25
2022-09-23T04:10:41.855Z,99487.59
2022-09-23T04:11:44.039Z,99490.19
2022-09-23T04:12:46.245Z,99488.03
2022-09-23T04:13:48.429Z,99491.59
2022-09-23T04:14:50.695Z,99482.81
2022-09-23T04:15:52.878Z,99480.31
2022-09-23T04:16:55.102Z,99471.91
2022-09-23T04:17:57.459Z,99483.81
2022-09-23T04:18:59.768Z,99479.25
2022-09-23T04:20:02.206Z,99484.38
2022-09-23T04:21:04.509Z,99480.19
2022-09-23T04:22:09.154Z,99477.47
2022-09-23T04:23:11.354Z,99484.31
2022-09-23T04:24:14.646Z,99477.56
2022-09-23T04:25:16.870Z,99475.75
2022-09-23T04:26:19.108Z,99474.88
2022-09-23T04:27:21.309Z,99475.13
2022-09-23T04:28:23.542Z,99471.44
2022-09-23T04:29:26.353Z,99474.72
2022-09-23T04:30:28.542Z,99471.34
2022-09-23T04:31:31.505Z,99472.38
2022-09-23T04:32:33.896Z,99471.63
2022-09-23T04:33:36.160Z,99474.09
2022-09-23T04:34:38.484Z,99475.00
2022-09-23T04:35:43.000Z,99481.19
2022-09-23T04:36:46.385Z,99474.34
2022-09-23T04:37:48.835Z,99471.19
2022-09-23T04:38:51.250Z,99469.34
2022-09-23T04:39:53.728Z,99470.31
2022-09-23T04:40:56.502Z,99475.28
2022-09-23T04:41:59.632Z,99478.50
2022-09-23T04:43:02.153Z,99471.69
2022-09-23T04:44:04.783Z,99474.34
2022-09-23T04:45:07.484Z,99471.53
2022-09-23T04:46:12.828Z,99472.13
2022-09-23T04:47:15.958Z,99481.03
2022-09-23T04:48:18.165Z,99479.56
2022-09-23T04:49:20.504Z,99476.91
2022-09-23T04:50:22.670Z,99479.44
2022-09-23T04:51:26.676Z,99473.16
2022-09-23T04:52:30.907Z,99484.25
2022-09-23T04:53:34.951Z,99479.25
2022-09-23T04:54:37.447Z,99476.09
2022-09-23T04:55:39.590Z,99485.72
2022-09-23T04:56:42.224Z,99482.34
2022-09-23T04:57:44.480Z,99485.63
2022-09-23T04:58:47.416Z,99487.38
2022-09-23T04:59:49.700Z,99474.09
2022-09-23T05:00:52.208Z,99483.66
2022-09-23T05:01:55.333Z,99484.38
2022-09-23T05:02:57.611Z,99488.56
2022-09-23T05:04:05.496Z,99484.03
2022-09-23T05:05:07.773Z,99491.41
2022-09-23T05:06:13.587Z,99486.19
2022-09-23T05:07:16.222Z,99487.72
2022-09-23T05:08:18.527Z,99482.66
2022-09-23T05:09:20.755Z,99487.84
2022-09-23T05:10:23.069Z,99487.59
2022-09-23T05:11:26.423Z,99485.00
2022-09-23T05:12:28.646Z,99495.44
2022-09-23T05:13:32.488Z,99495.38
2022-09-23T05:14:34.710Z,99496.25
2022-09-23T05:15:36.926Z,99499.81
2022-09-23T05:16:39.187Z,99496.19
2022-09-23T05:17:44.002Z,99495.91
2022-09-23T05:18:48.157Z,99494.50
2022-09-23T05:19:50.342Z,99491.22
2022-09-23T05:20:54.406Z,99497.41
2022-09-23T05:21:56.684Z,99498.97
2022-09-23T05:22:59.452Z,99493.44
2022-09-23T05:24:01.906Z,99491.56
2022-09-23T05:25:04.281Z,99499.47
2022-09-23T05:26:11.364Z,99498.63
2022-09-23T05:27:13.605Z,99502.31
2022-09-23T05:28:19.172Z,99487.44
2022-09-23T05:29:21.336Z,99492.53
2022-09-23T05:30:23.991Z,99481.66
2022-09-23T05:31:28.724Z,99484.75
2022-09-23T05:32:31.795Z,99492.25
2022-09-23T05:33:36.337Z,99489.72
2022-09-23T05:34:38.773Z,99491.44
2022-09-23T05:35:47.026Z,99486.72
2022-09-23T05:36:49.419Z,99482.03
2022-09-23T05:37:51.618Z,99484.75
2022-09-23T05:38:54.599Z,99489.47
2022-09-23T05:39:56.787Z,99487.16
2022-09-23T05:41:03.955Z,99489.84
2022-09-23T05:42:06.881Z,99484.19
2022-09-23T05:43:09.720Z,99478.63
2022-09-23T05:44:12.209Z,99474.00
2022-09-23T05:45:14.469Z,99475.06
2022-09-23T05:46:19.377Z,99482.91
2022-09-23T05:47:21.977Z,99485.09
2022-09-23T05:48:24.184Z,99485.94
2022-09-23T05:49:42.635Z,99484.44
2022-09-23T05:50:52.164Z,99484.28
2022-09-23T05:51:54.375Z,99485.41
2022-09-23T05:52:56.563Z,99481.84
2022-09-23T05:54:00.160Z,99490.72
2022-09-23T05:55:02.570Z,99486.63
2022-09-23T05:56:06.326Z,99487.13
2022-09-23T05:57:08.684Z,99484.69
2022-09-23T05:58:14.546Z,99501.91
2022-09-23T05:59:17.334Z,99497.31
2022-09-23T06:00:19.662Z,99500.34
2022-09-23T06:01:27.083Z,99494.97
2022-09-23T06:02:29.275Z,99500.66
2022-09-23T06:03:31.486Z,99496.03
2022-09-23T06:04:33.693Z,99492.03
2022-09-23T06:05:35.830Z,99497.63
2022-09-23T06:06:41.403Z,99503.59
2022-09-23T06:07:43.844Z,99502.31
2022-09-23T06:08:47.570Z,99493.28
2022-09-23T06:09:51.663Z,99487.91
2022-09-23T06:10:54.745Z,99493.38
2022-09-23T06:11:57.222Z,99498.75
2022-09-23T06:12:59.848Z,99495.53
2022-09-23T06:14:03.072Z,99494.44
2022-09-23T06:15:06.319Z,99490.72
2022-09-23T06:16:14.093Z,99485.94
2022-09-23T06:17:16.594Z,99494.81
2022-09-23T06:18:19.055Z,99495.22
2022-09-23T06:19:21.531Z,99487.31
2022-09-23T06:20:23.863Z,99479.28
2022-09-23T06:21:26.279Z,99485.28
2022-09-23T06:22:28.506Z,99484.66
2022-09-23T06:23:31.093Z,99492.94
2022-09-23T06:24:33.268Z,99484.44
2022-09-23T06:25:38.256Z,99475.47
2022-09-23T06:26:40.537Z,99482.81
2022-09-23T06:27:42.763Z,99482.91
2022-09-23T06:28:45.804Z,99487.25
2022-09-23T06:29:49.456Z,99479.09
2022-09-23T06:30:57.573Z,99479.31
2022-09-23T06:31:59.916Z,99481.16
2022-09-23T06:33:02.263Z,99476.34
2022-09-23T06:34:11.509Z,99479.69
2022-09-23T06:35:25.426Z,99475.09
2022-09-23T06:36:41.331Z,99477.31
2022-09-23T06:37:46.335Z,99471.09
2022-09-23T06:38:49.312Z,99485.00
2022-09-23T06:39:52.632Z,99473.84
2022-09-23T06:40:57.836Z,99480.56
2022-09-23T06:42:00.202Z,99480.31
2022-09-23T06:43:02.744Z,99477.41
2022-09-23T06:44:06.084Z,99475.22
2022-09-23T06:45:12.915Z,99477.72
2022-09-23T06:46:16.196Z,99467.38
2022-09-23T06:47:18.525Z,99470.94
2022-09-23T06:48:21.313Z,99469.53
2022-09-23T06:49:23.553Z,99472.22
2022-09-23T06:50:27.223Z,99470.94
2022-09-23T06:51:29.451Z,99474.63
2022-09-23T06:52:32.084Z,99469.63
2022-09-23T06:53:34.464Z,99457.16
2022-09-23T06:54:37.983Z,99471.19
2022-09-23T06:55:41.473Z,99470.34
2022-09-23T06:56:47.348Z,99472.97
2022-09-23T06:57:49.584Z,99468.63
2022-09-23T06:58:52.832Z,99481.50
2022-09-23T06:59:55.202Z,99474.81
2022-09-23T07:01:02.417Z,99482.50
2022-09-23T07:02:04.783Z,99480.84
2022-09-23T07:03:08.140Z,99488.03
2022-09-23T07:04:10.672Z,99479.66
2022-09-23T07:05:13.922Z,99479.59
2022-09-23T07:06:17.461Z,99483.47
2022-09-23T07:07:19.664Z,99485.00
2022-09-23T07:08:23.069Z,99477.81
2022-09-23T07:09:25.926Z,99478.34
2022-09-23T07:10:29.122Z,99478.16
2022-09-23T07:11:31.407Z,99485.34
2022-09-23T07:12:34.145Z,99486.81
2022-09-23T07:13:36.994Z,99486.53
2022-09-23T07:14:39.916Z,99488.69
2022-09-23T07:15:42.324Z,99482.03
2022-09-23T07:16:44.633Z,99499.06
2022-09-23T07:17:46.983Z,99485.25
2022-09-23T07:18:49.226Z,99487.22
2022-09-23T07:19:54.953Z,99493.13
2022-09-23T07:20:59.935Z,99485.94
2022-09-23T07:22:02.187Z,99490.66
2022-09-23T07:23:04.403Z,99490.13
2022-09-23T07:24:07.518Z,99484.00
2022-09-23T07:25:11.423Z,99488.75
2022-09-23T07:26:15.670Z,99481.25
2022-09-23T07:27:19.833Z,99481.50
2022-09-23T07:28:22.224Z,99479.47
2022-09-23T07:29:24.384Z,99494.34
2022-09-23T07:30:27.118Z,99490.78
2022-09-23T07:31:38.637Z,99494.41
2022-09-23T07:32:48.091Z,99491.28
2022-09-23T07:33:57.386Z,99488.28
2022-09-23T07:34:59.799Z,99492.03
2022-09-23T07:36:19.782Z,99501.59
2022-09-23T07:37:22.032Z,99496.91
2022-09-23T07:38:26.544Z,99497.38
2022-09-23T07:39:28.844Z,99497.69
2022-09-23T07:40:31.082Z,99497.94
2022-09-23T07:41:34.641Z,99494.16
2022-09-23T07:42:38.052Z,99496.22
2022-09-23T07:43:40.744Z,99499.63
2022-09-23T07:44:45.949Z,99499.56
2022-09-23T07:45:48.147Z,99499.88
2022-09-23T07:46:50.530Z,99499.94
2022-09-23T07:47:55.103Z,99500.94
2022-09-23T07:48:57.719Z,99499.50
2022-09-23T07:49:59.912Z,99497.28
2022-09-23T07:51:09.701Z,99504.03
2022-09-23T07:52:11.866Z,99498.34
2022-09-23T07:53:15.915Z,99502.59
2022-09-23T07:54:18.986Z,99498.56
2022-09-23T07:55:21.251Z,99498.72
2022-09-23T07:56:29.114Z,99491.28
2022-09-23T07:57:32.225Z,99497.22
2022-09-23T07:58:34.964Z,99494.66
2022-09-23T07:59:37.280Z,99493.59
2022-09-23T08:00:39.421Z,99502.91
2022-09-23T08:01:44.429Z,99504.59
2022-09-23T08:02:50.802Z,99504.81
2022-09-23T08:04:02.799Z,99497.16
2022-09-23T08:05:05.767Z,99508.50
2022-09-23T08:06:11.253Z,99499.63
2022-09-23T08:07:13.612Z,99502.72
2022-09-23T08:08:15.803Z,99497.81
2022-09-23T08:09:20.076Z,99505.72
2022-09-23T08:10:22.318Z,99500.97
2022-09-23T08:11:25.954Z,99506.00
2022-09-23T08:12:31.982Z,99503.28
2022-09-23T08:13:34.285Z,99508.25
2022-09-23T08:14:37.993Z,99504.28
2022-09-23T08:15:40.354Z,99495.31
2022-09-23T08:16:44.011Z,99496.19
2022-09-23T08:17:46.682Z,99502.00
2022-09-23T08:18:49.097Z,99499.13
2022-09-23T08:19:51.508Z,99507.53
2022-09-23T08:20:53.790Z,99503.84
2022-09-23T08:21:57.565Z,99502.31
2022-09-23T08:22:59.927Z,99502.28
2022-09-23T08:24:02.446Z,99510.38
2022-09-23T08:25:07.677Z,99501.63
2022-09-23T08:26:18.685Z,99499.47
2022-09-23T08:27:23.492Z,99510.91
2022-09-23T08:28:26.144Z,99503.00
2022-09-23T08:29:28.439Z,99498.91
2022-09-23T08:30:30.864Z,99505.91
2022-09-23T08:31:33.079Z,99501.72
2022-09-23T08:32:35.618Z,99504.03
2022-09-23T08:33:37.850Z,99507.06
2022-09-23T08:34:40.060Z,99505.47
2022-09-23T08:35:42.273Z,99509.47
2022-09-23T08:36:45.099Z,99504.00
2022-09-23T08:37:47.600Z,99511.69
2022-09-23T08:38:50.429Z,99507.84
2022-09-23T08:39:56.726Z,99509.34
2022-09-23T08:41:37.307Z,99507.59
2022-09-23T08:42:43.299Z,99508.28
2022-09-23T08:43:50.699Z,99511.22
2022-09-23T08:44:57.959Z,99505.63
2022-09-23T08:46:04.695Z,99508.09
2022-09-23T08:47:15.917Z,99503.38
2022-09-23T08:48:32.130Z,99508.75
2022-09-23T08:49:49.181Z,99507.75
2022-09-23T08:50:59.443Z,99504.78
2022-09-23T08:52:09.450Z,99508.94
2022-09-23T08:53:20.605Z,99500.84
2022-09-23T08:54:26.440Z,99498.34
2022-09-23T08:55:42.001Z,99503.66
2022-09-23T08:56:49.125Z,99501.63
2022-09-23T08:58:39.249Z,99495.31
2022-09-23T08:59:44.021Z,99502.19
2022-09-23T09:00:55.387Z,99505.06
2022-09-23T09:02:00.143Z,99497.50
2022-09-23T09:03:12.557Z,99504.91
2022-09-23T09:04:45.360Z,99497.59
2022-09-23T09:05:54.284Z,99502.50
2022-09-23T09:07:31.782Z,99499.53
2022-09-23T09:08:35.186Z,99499.53
2022-09-23T09:09:48.867Z,99498.41
2022-09-23T09:10:55.146Z,99506.84
2022-09-23T09:12:11.043Z,99500.94
2022-09-23T09:13:29.575Z,99507.50
2022-09-23T09:14:36.931Z,99508.81
2022-09-23T09:15:55.081Z,99494.84
2022-09-23T09:17:08.018Z,99500.47
2022-09-23T09:18:16.834Z,99492.28
2022-09-23T09:19:22.090Z,99495.16
2022-09-23T09:20:35.132Z,99486.06
2022-09-23T09:21:42.451Z,99488.00
2022-09-23T09:23:00.549Z,99486.59
2022-09-23T09:24:08.578Z,99487.66
2022-09-23T09:25:41.119Z,99489.09
2022-09-23T09:26:43.349Z,99485.03
2022-09-23T09:27:47.512Z,99481.25
2022-09-23T09:29:23.324Z,99479.66
2022-09-23T09:30:25.610Z,99475.50
2022-09-23T09:31:33.338Z,99481.63
2022-09-23T09:32:47.176Z,99476.16
2022-09-23T09:34:24.903Z,99476.22
2022-09-23T09:35:39.094Z,99475.06
2022-09-23T09:36:49.968Z,99477.47
2022-09-23T09:37:53.549Z,99474.56
2022-09-23T09:38:58.532Z,99469.13
2022-09-23T09:40:00.851Z,99467.66
2022-09-23T09:41:13.784Z,99465.84
2022-09-23T09:42:24.523Z,99461.75
2022-09-23T09:43:26.959Z,99471.09
2022-09-23T09:44:44.909Z,99464.53
2022-09-23T09:46:10.852Z,99461.38
2022-09-23T09:47:28.424Z,99457.84
2022-09-23T09:48:38.048Z,99468.16
2022-09-23T09:50:01.935Z,99457.72
2022-09-23T09:51:25.641Z,99465.16
2022-09-23T09:52:29.777Z,99450.47
2022-09-23T09:53:35.594Z,99452.50
2022-09-23T09:54:38.654Z,99448.84
2022-09-23T09:55:41.467Z,99450.53
2022-09-23T09:56:44.938Z,99455.56
2022-09-23T09:57:55.573Z,99457.44
2022-09-23T09:59:15.216Z,99452.78
2022-09-23T10:00:26.625Z,99453.88
2022-09-23T10:01:31.215Z,99452.06
2022-09-23T10:02:46.142Z,99443.94
2022-09-23T10:03:52.119Z,99454.34
2022-09-23T10:05:03.312Z,99453.22
2022-09-23T10:06:35.754Z,99437.16
2022-09-23T10:07:38.078Z,99440.19
2022-09-23T10:08:40.326Z,99446.06
2022-09-23T10:09:50.431Z,99448.00
2022-09-23T10:11:03.039Z,99443.69
2022-09-23T10:12:18.579Z,99443.06
2022-09-23T10:13:27.194Z,99439.59
2022-09-23T10:14:30.095Z,99446.88
2022-09-23T10:15:44.936Z,99446.19
2022-09-23T10:17:05.197Z,99450.72
2022-09-23T10:18:19.989Z,99449.47
2022-09-23T10:19:28.481Z,99440.28
2022-09-23T10:20:37.871Z,99448.03
2022-09-23T10:21:42.168Z,99448.69
2022-09-23T10:22:44.649Z,99444.66
2022-09-23T10:23:54.775Z,99442.69
2022-09-23T10:25:03.676Z,99443.44
2022-09-23T10:26:12.044Z,99443.78
2022-09-23T10:27:14.321Z,99440.75
2022-09-23T10:28:38.169Z,99436.78
2022-09-23T10:29:51.305Z,99435.91
2022-09-23T10:31:24.382Z,99437.53
2022-09-23T10:32:38.602Z,99440.91
2022-09-23T10:33:49.275Z,99432.38
2022-09-23T10:35:02.589Z,99434.31
2022-09-23T10:36:09.247Z,99429.03
2022-09-23T10:37:30.598Z,99424.03
2022-09-23T10:38:32.793Z,99422.81
2022-09-23T10:39:53.806Z,99423.91
2022-09-23T10:41:15.349Z,99414.81
2022-09-23T10:42:54.425Z,99415.41
2022-09-23T10:44:37.784Z,99416.63
2022-09-23T10:45:59.543Z,99428.72
2022-09-23T10:47:14.475Z,99428.03
2022-09-23T10:48:37.814Z,99428.03
2022-09-23T10:50:04.535Z,99420.94
2022-09-23T10:51:38.650Z,99416.19
2022-09-23T10:52:47.471Z,99406.84
2022-09-23T10:54:14.364Z,99410.81
2022-09-23T10:55:50.459Z,99402.91
2022-09-23T10:56:59.791Z,99399.38
2022-09-23T10:58:19.560Z,99408.78
2022-09-23T10:59:30.528Z,99409.47
2022-09-23T11:01:00.246Z,99399.25
2022-09-23T11:02:08.629Z,99396.59
2022-09-23T11:03:27.216Z,99403.09
2022-09-23T11:04:51.059Z,99398.72
2022-09-23T11:06:11.273Z,99400.19
2022-09-23T11:07:40.337Z,99398.75
2022-09-23T11:09:23.045Z,99396.78
2022-09-23T11:10:59.510Z,99394.34
2022-09-23T11:12:24.220Z,99394.50
2022-09-23T11:13:53.565Z,99392.19
2022-09-23T11:15:28.442Z,99391.31
2022-09-23T11:16:58.145Z,99385.41
2022-09-23T11:18:03.184Z,99382.53
2022-09-23T11:19:32.329Z,99381.88
2022-09-23T11:21:00.821Z,99392.19
2022-09-23T11:22:37.332Z,99396.53
2022-09-23T11:24:00.239Z,99393.22
2022-09-23T11:25:17.789Z,99389.88
2022-09-23T11:26:46.546Z,99388.81
2022-09-23T11:28:17.667Z,99382.66
2022-09-23T11:29:49.249Z,99386.00
2022-09-23T11:31:20.927Z,99374.59
2022-09-23T11:32:47.925Z,99375.72
2022-09-23T11:34:25.371Z,99376.88
2022-09-23T11:35:36.801Z,99377.97
2022-09-23T11:36:44.487Z,99364.53
2022-09-23T11:37:52.063Z,99376.13
2022-09-23T11:38:58.851Z,99376.53
2022-09-23T11:40:15.412Z,99373.22
2022-09-23T11:41:29.154Z,99367.56
2022-09-23T11:42:37.466Z,99370.75
2022-09-23T11:43:42.171Z,99371.28
2022-09-23T11:45:09.757Z,99369.84
2022-09-23T11:46:31.029Z,99367.13
2022-09-23T11:47:59.379Z,99367.22
2022-09-23T11:49:15.798Z,99371.41
2022-09-23T11:50:29.228Z,99362.94
2022-09-23T11:51:42.456Z,99366.47
2022-09-23T11:52:51.819Z,99364.56
2022-09-23T11:54:22.721Z,99360.47
2022-09-23T11:55:31.442Z,99360.13
2022-09-23T11:56:41.411Z,99362.00
2022-09-23T11:57:53.119Z,99358.38
2022-09-23T11:59:06.659Z,99354.22
2022-09-23T12:00:20.642Z,99353.31
2022-09-23T12:01:49.687Z,99356.78
2022-09-23T12:03:05.906Z,99365.25
2022-09-23T12:04:24.298Z,99356.47
2022-09-23T12:05:33.135Z,99357.03
2022-09-23T12:07:14.554Z,99355.31
2022-09-23T12:08:34.622Z,99349.59
2022-09-23T12:09:58.276Z,99345.81
2022-09-23T12:11:25.759Z,99345.97
2022-09-23T12:12:27.900Z,99343.38
2022-09-23T12:13:36.094Z,99349.41
2022-09-23T12:14:47.302Z,99353.97
2022-09-23T12:16:04.926Z,99350.13
2022-09-23T12:17:34.488Z,99346.63
2022-09-23T12:18:48.599Z,99338.47
2022-09-23T12:20:02.695Z,99333.34
2022-09-23T12:21:46.191Z,99338.53
2022-09-23T12:22:55.106Z,99335.63
2022-09-23T12:24:01.228Z,99338.47
2022-09-23T12:25:38.442Z,99334.00
2022-09-23T12:26:41.897Z,99326.63
2022-09-23T12:27:48.022Z,99331.34
2022-09-23T12:28:54.413Z,99329.63
2022-09-23T12:30:02.567Z,99329.53
2022-09-23T12:31:10.071Z,99327.81
2022-09-23T12:32:18.683Z,99331.03
2022-09-23T12:33:24.701Z,99325.53
2022-09-23T12:34:48.801Z,99322.19
2022-09-23T12:36:05.156Z,99336.19
2022-09-23T12:37:07.411Z,99326.69
2022-09-23T12:38:14.099Z,99319.34
2022-09-23T12:39:23.659Z,99325.88
2022-09-23T12:40:43.878Z,99327.91
2022-09-23T12:41:58.296Z,99323.66
2022-09-23T12:43:02.196Z,99316.09
2022-09-23T12:44:23.198Z,99321.28
2022-09-23T12:45:31.339Z,99323.81
2022-09-23T12:46:33.863Z,99323.88
2022-09-23T12:47:38.849Z,99321.59
2022-09-23T12:48:57.851Z,99322.97
2022-09-23T12:50:01.193Z,99316.13
2022-09-23T12:51:03.324Z,99317.78
2022-09-23T12:52:17.408Z,99314.84
2022-09-23T12:53:34.731Z,99313.81
2022-09-23T12:54:38.382Z,99312.31
2022-09-23T12:55:41.461Z,99306.13
2022-09-23T12:56:55.877Z,99313.78
2022-09-23T12:57:58.042Z,99306.88
2022-09-23T12:59:16.154Z,99301.53
2022-09-23T13:00:28.082Z,99314.00
2022-09-23T13:01:37.635Z,99312.78
2022-09-23T13:03:10.424Z,99306.22
2022-09-23T13:04:50.074Z,99320.13
2022-09-23T13:06:19.715Z,99310.53
2022-09-23T13:07:29.912Z,99314.53
2022-09-23T13:08:35.814Z,99309.38
2022-09-23T13:09:42.643Z,99306.38
2022-09-23T13:10:49.693Z,99306.44
2022-09-23T13:11:53.635Z,99313.50
2022-09-23T13:12:57.590Z,99304.66
2022-09-23T13:14:03.908Z,99301.56
2022-09-23T13:15:24.572Z,99301.78
2022-09-23T13:16:26.809Z,99298.88
2022-09-23T13:17:33.339Z,99309.09
2022-09-23T13:19:26.047Z,99307.53
2022-09-23T13:20:34.750Z,99304.84
2022-09-23T13:21:42.761Z,99298.41
2022-09-23T13:22:53.679Z,99298.16
2022-09-23T13:24:19.333Z,99301.00
2022-09-23T13:25:24.267Z,99305.31
2022-09-23T13:26:32.228Z,99302.34
2022-09-23T13:27:35.922Z,99303.31
2022-09-23T13:28:55.743Z,99297.78
2022-09-23T13:30:04.409Z,99290.16
2022-09-23T13:31:15.072Z,99290.19
2022-09-23T13:32:19.794Z,99291.53